Time;durP1;ratioP1;P1;durP2;ratioP2;P2;SDS_P1;SDS_P2;PMS_P1;PMS_P2;Temp;Humidity;BMP_temperature;BMP_pressure;BME280_temperature;BME280_humidity;BME280_pressure;Samples;Min_cycle;Max_cycle;Signal;HPM_P1;HPM_P2
2023/12/17 00:02:24;;;;;;;;;3.75;3.25;;;;;8.82;85.50;102035.06;5097546;28;8822;-59
2023/12/17 00:04:52;;;;;;;;;3.00;3.00;;;;;8.83;85.78;102033.28;5097378;28;8826;-56
2023/12/17 00:07:20;;;;;;;;;3.00;3.00;;;;;8.84;85.67;102027.03;5097788;28;8945;-58
2023/12/17 00:09:48;;;;;;;;;3.00;3.00;;;;;8.84;85.56;102025.28;5098077;28;8826;-57
2023/12/17 00:12:16;;;;;;;;;1.00;1.00;;;;;8.85;85.47;102026.13;5097952;28;8984;-57
2023/12/17 00:14:45;;;;;;;;;2.75;2.50;;;;;8.86;85.56;102030.50;5097191;28;8818;-56
2023/12/17 00:17:13;;;;;;;;;2.00;2.00;;;;;8.86;85.78;102033.16;5097164;28;8849;-57
2023/12/17 00:19:41;;;;;;;;;4.00;4.00;;;;;8.87;85.37;102037.53;5097663;28;8834;-57
2023/12/17 00:22:10;;;;;;;;;4.00;3.25;;;;;8.86;85.77;102020.75;5097359;28;8826;-58
2023/12/17 00:24:38;;;;;;;;;3.00;3.00;;;;;8.87;85.55;102027.78;5098046;28;8873;-58
2023/12/17 00:27:06;;;;;;;;;0.00;0.00;;;;;8.87;85.57;102027.78;5096684;28;8854;-57
2023/12/17 00:29:33;;;;;;;;;3.00;3.00;;;;;8.88;85.09;102015.38;5097039;28;8825;-58
2023/12/17 00:32:01;;;;;;;;;3.75;3.00;;;;;8.88;85.80;102018.03;5096882;28;8830;-57
2023/12/17 00:34:29;;;;;;;;;3.00;2.00;;;;;8.87;85.45;102019.81;5096065;28;8902;-57
2023/12/17 00:36:58;;;;;;;;;4.00;3.00;;;;;8.88;85.54;102007.41;5094207;28;8817;-58
2023/12/17 00:39:25;;;;;;;;;3.00;1.00;;;;;8.88;85.30;102012.72;5096962;28;9631;-57
2023/12/17 00:41:53;;;;;;;;;6.00;3.50;;;;;8.88;85.21;102002.09;5097156;28;8860;-58
2023/12/17 00:44:21;;;;;;;;;1.00;1.00;;;;;8.87;85.56;101995.91;5096865;28;8895;-57
2023/12/17 00:46:49;;;;;;;;;3.00;3.00;;;;;8.89;85.31;102009.16;5097643;28;8842;-58
2023/12/17 00:49:16;;;;;;;;;3.50;3.00;;;;;8.89;85.48;102004.69;5096979;28;8814;-55
2023/12/17 00:51:44;;;;;;;;;5.00;3.75;;;;;8.89;85.60;102004.69;5097157;28;9511;-58
2023/12/17 00:54:12;;;;;;;;;4.00;3.75;;;;;8.90;84.97;102009.06;5097447;28;8834;-55
2023/12/17 00:56:40;;;;;;;;;1.00;1.00;;;;;8.91;85.27;102013.47;5096498;28;8822;-57
2023/12/17 00:59:08;;;;;;;;;2.50;1.00;;;;;8.89;85.31;102007.34;5096056;28;8883;-57
2023/12/17 01:01:36;;;;;;;;;3.50;3.00;;;;;8.88;85.25;102010.91;5096170;28;8837;-55
2023/12/17 01:04:04;;;;;;;;;5.50;5.50;;;;;8.88;85.53;102013.56;5095925;28;8818;-57
2023/12/17 01:06:32;;;;;;;;;4.00;4.00;;;;;8.88;85.62;101997.63;5095590;28;8826;-57
2023/12/17 01:08:59;;;;;;;;;3.00;3.00;;;;;8.87;85.48;102006.53;5096261;28;8826;-57
2023/12/17 01:11:27;;;;;;;;;3.50;3.25;;;;;8.88;85.63;102007.41;5096461;28;8868;-57
2023/12/17 01:13:55;;;;;;;;;5.00;4.00;;;;;8.89;85.38;102004.69;5095263;28;9012;-57
2023/12/17 01:16:23;;;;;;;;;3.50;3.50;;;;;8.89;85.33;102010.00;5095573;28;8818;-58
2023/12/17 01:18:51;;;;;;;;;1.00;1.00;;;;;8.90;85.81;102011.72;5095601;28;8872;-58
2023/12/17 01:21:19;;;;;;;;;3.75;3.75;;;;;8.91;85.41;102013.47;5095535;28;8869;-58
2023/12/17 01:23:48;;;;;;;;;3.00;3.00;;;;;8.93;85.59;102014.28;5095815;28;8836;-56
2023/12/17 01:26:16;;;;;;;;;1.50;1.00;;;;;8.94;85.73;102018.66;5096197;28;8826;-56
2023/12/17 01:28:44;;;;;;;;;3.00;3.00;;;;;8.95;85.45;102015.06;5095272;28;8948;-58
2023/12/17 01:31:12;;;;;;;;;5.00;4.00;;;;;8.96;85.51;102022.09;5095679;28;8960;-57
2023/12/17 01:33:39;;;;;;;;;4.25;3.25;;;;;8.98;85.72;102025.56;5097107;28;9503;-57
2023/12/17 01:36:07;;;;;;;;;3.50;3.00;;;;;8.99;85.16;102037.06;5096267;28;8857;-57
2023/12/17 01:38:35;;;;;;;;;1.00;1.00;;;;;9.00;85.16;102034.34;5096264;28;8837;-58
2023/12/17 01:41:03;;;;;;;;;5.00;5.00;;;;;9.01;85.40;102035.22;5096184;28;8838;-57
2023/12/17 01:43:31;;;;;;;;;6.25;5.50;;;;;9.02;85.32;102026.31;5096591;28;8822;-58
2023/12/17 01:45:59;;;;;;;;;6.50;6.00;;;;;9.02;85.30;102032.50;5096548;28;8833;-58
2023/12/17 01:48:27;;;;;;;;;4.00;3.50;;;;;9.02;85.63;102029.84;5095906;28;8818;-58
2023/12/17 01:50:55;;;;;;;;;4.00;4.00;;;;;9.01;85.54;102033.44;5096429;28;8806;-58
2023/12/17 01:53:23;;;;;;;;;3.25;3.25;;;;;9.01;85.32;102035.22;5096514;28;8891;-58
2023/12/17 01:55:51;;;;;;;;;4.50;3.75;;;;;9.00;85.60;102037.03;5096458;28;8838;-58
2023/12/17 01:58:18;;;;;;;;;4.50;4.50;;;;;9.00;85.56;102037.03;5096220;28;8806;-58
2023/12/17 02:00:47;;;;;;;;;3.00;3.00;;;;;8.99;85.69;102029.97;5096208;28;8821;-57
2023/12/17 02:03:14;;;;;;;;;6.50;6.50;;;;;9.00;85.56;102039.69;5096048;28;8894;-56
2023/12/17 02:05:42;;;;;;;;;6.75;4.00;;;;;8.99;85.58;102026.44;5096498;28;8848;-58
2023/12/17 02:08:10;;;;;;;;;4.50;4.00;;;;;8.97;85.14;102034.47;5096167;28;9463;-55
2023/12/17 02:10:38;;;;;;;;;3.00;3.00;;;;;8.98;85.57;102035.34;5096180;28;8873;-58
2023/12/17 02:13:09;;;;;;;;;6.00;6.00;;;;;8.97;85.90;102039.78;5095886;28;8821;-58
2023/12/17 02:15:37;;;;;;;;;5.50;5.50;;;;;8.97;85.25;102041.59;5096037;28;8864;-58
2023/12/17 02:18:05;;;;;;;;;6.00;6.00;;;;;8.96;85.17;102043.38;5095333;28;8872;-57
2023/12/17 02:20:34;;;;;;;;;2.00;2.00;;;;;8.96;85.56;102037.19;5094807;28;8822;-57
2023/12/17 02:23:02;;;;;;;;;3.50;3.50;;;;;8.95;85.80;102036.31;5095481;28;8838;-58
2023/12/17 02:25:31;;;;;;;;;3.50;3.25;;;;;8.96;85.52;102034.53;5095318;28;8854;-58
2023/12/17 02:27:59;;;;;;;;;3.50;3.50;;;;;8.94;85.32;102034.59;5094839;28;8829;-57
2023/12/17 02:30:27;;;;;;;;;4.50;4.00;;;;;8.94;85.56;102036.38;5095951;28;8822;-58
2023/12/17 02:32:55;;;;;;;;;3.00;3.00;;;;;8.94;85.82;102028.41;5095232;28;8832;-57
2023/12/17 02:35:21;;;;;;;;;4.50;4.00;;;;;8.93;85.65;102022.25;5096398;28;9584;-58
2023/12/17 02:37:50;;;;;;;;;6.00;6.00;;;;;8.92;85.47;102017.84;5095714;28;8837;-56
2023/12/17 02:40:18;;;;;;;;;4.00;3.50;;;;;8.92;85.75;102016.97;5095311;28;8850;-58
2023/12/17 02:42:45;;;;;;;;;5.50;4.00;;;;;8.90;85.67;102009.06;5095854;28;8876;-58
2023/12/17 02:45:13;;;;;;;;;7.50;5.50;;;;;8.90;85.49;102011.72;5096028;28;8852;-58
2023/12/17 02:47:41;;;;;;;;;5.00;3.50;;;;;8.90;85.63;102005.56;5094515;28;8834;-58
2023/12/17 02:50:09;;;;;;;;;4.00;4.00;;;;;8.90;85.65;102006.41;5094451;28;8826;-57
2023/12/17 02:52:37;;;;;;;;;5.50;5.00;;;;;8.91;85.91;102002.84;5094640;28;8830;-58
2023/12/17 02:55:05;;;;;;;;;3.75;3.75;;;;;8.92;85.66;102009.00;5095165;28;8818;-58
2023/12/17 02:57:33;;;;;;;;;4.00;4.00;;;;;8.89;85.57;102004.69;5095020;28;8818;-58
2023/12/17 03:00:00;;;;;;;;;3.25;3.25;;;;;8.92;86.02;102003.69;5094835;28;8857;-58
2023/12/17 03:02:28;;;;;;;;;7.00;6.50;;;;;8.92;85.89;101996.59;5094840;28;8864;-57
2023/12/17 03:04:56;;;;;;;;;5.50;5.00;;;;;8.93;85.74;101994.78;5094586;28;8837;-58
2023/12/17 03:07:23;;;;;;;;;7.00;6.00;;;;;8.94;85.81;102002.72;5094854;28;8903;-58
2023/12/17 03:09:54;;;;;;;;;3.00;1.50;;;;;8.93;85.97;102003.66;5094485;28;8937;-56
2023/12/17 03:12:22;;;;;;;;;6.75;6.50;;;;;8.94;85.90;102018.66;5095214;28;8838;-57
2023/12/17 03:14:50;;;;;;;;;4.00;1.50;;;;;8.95;85.72;102008.91;5095408;28;8822;-57
2023/12/17 03:17:18;;;;;;;;;5.50;4.00;;;;;8.96;85.80;102010.63;5095153;28;8830;-57
2023/12/17 03:19:46;;;;;;;;;4.75;4.75;;;;;8.95;85.95;102006.25;5094375;28;8841;-55
2023/12/17 03:22:14;;;;;;;;;5.50;4.00;;;;;8.96;85.83;101998.19;5094111;28;8934;-57
2023/12/17 03:24:42;;;;;;;;;0.25;0.00;;;;;8.96;85.79;101992.03;5094895;28;8832;-57
2023/12/17 03:27:10;;;;;;;;;5.00;5.00;;;;;8.96;85.50;101982.25;5094757;28;8806;-56
2023/12/17 03:29:38;;;;;;;;;3.50;3.50;;;;;8.96;85.46;101973.44;5095411;28;9542;-56
2023/12/17 03:32:05;;;;;;;;;7.00;7.00;;;;;8.95;85.73;101971.72;5099074;28;8822;-58
2023/12/17 03:34:34;;;;;;;;;6.75;6.00;;;;;8.93;85.69;101963.78;5098620;28;8918;-58
2023/12/17 03:37:01;;;;;;;;;4.00;4.00;;;;;8.92;85.79;101967.38;5098806;28;8830;-58
2023/12/17 03:39:29;;;;;;;;;6.50;5.50;;;;;8.91;85.56;101965.66;5099082;28;9507;-57
2023/12/17 03:41:57;;;;;;;;;3.50;3.50;;;;;8.91;85.65;101968.31;5099223;28;8834;-58
2023/12/17 03:44:24;;;;;;;;;7.00;5.00;;;;;8.91;85.76;101976.28;5099064;28;8906;-58
2023/12/17 03:46:52;;;;;;;;;3.25;2.50;;;;;8.89;85.50;101970.16;5099523;28;8814;-56
2023/12/17 03:49:20;;;;;;;;;4.00;3.50;;;;;8.88;85.72;101964.91;5098210;28;8848;-56
2023/12/17 03:51:48;;;;;;;;;3.50;3.00;;;;;8.88;85.46;101971.06;5098908;28;8822;-57
2023/12/17 03:54:15;;;;;;;;;6.25;4.00;;;;;8.88;86.11;101965.75;5098791;28;8818;-56
2023/12/17 03:56:43;;;;;;;;;6.75;4.00;;;;;8.88;85.76;101964.91;5099236;28;8895;-56
2023/12/17 03:59:11;;;;;;;;;3.50;3.50;;;;;8.87;85.89;101963.16;5097827;28;8814;-55
2023/12/17 04:01:39;;;;;;;;;4.00;4.00;;;;;8.86;85.94;101959.66;5098927;28;8825;-56
2023/12/17 04:04:07;;;;;;;;;9.00;6.00;;;;;8.85;85.90;101965.00;5098428;28;8973;-58
2023/12/17 04:06:35;;;;;;;;;4.00;4.00;;;;;8.84;85.87;101964.16;5098813;28;8855;-55
2023/12/17 04:09:03;;;;;;;;;4.00;3.75;;;;;8.83;85.85;101951.78;5098457;28;8857;-57
2023/12/17 04:11:31;;;;;;;;;3.25;3.25;;;;;8.81;86.14;101953.66;5098713;28;8842;-58
2023/12/17 04:13:59;;;;;;;;;6.50;6.50;;;;;8.81;86.01;101956.31;5098632;28;8810;-58
2023/12/17 04:16:26;;;;;;;;;5.00;5.00;;;;;8.80;86.11;101951.94;5098457;28;8818;-57
2023/12/17 04:18:54;;;;;;;;;6.00;5.00;;;;;8.80;85.90;101948.41;5098332;28;8834;-58
2023/12/17 04:21:24;;;;;;;;;6.25;6.25;;;;;8.80;85.96;101951.06;5097631;28;8826;-58
2023/12/17 04:23:51;;;;;;;;;2.75;2.00;;;;;8.79;86.05;101944.00;5097792;28;8963;-57
2023/12/17 04:26:19;;;;;;;;;8.75;6.00;;;;;8.78;86.03;101952.91;5097779;28;8826;-57
2023/12/17 04:28:47;;;;;;;;;6.00;6.00;;;;;8.77;86.36;101941.44;5097062;28;9618;-56
2023/12/17 04:31:15;;;;;;;;;3.25;3.00;;;;;8.76;86.04;101945.03;5097938;28;8822;-57
2023/12/17 04:34:02;;;;;;;;;3.75;3.75;;;;;8.78;86.38;101942.28;5097837;28;8806;-56
2023/12/17 04:36:30;;;;;;;;;3.75;3.00;;;;;8.79;86.26;101944.00;5097855;28;8822;-57
2023/12/17 04:39:00;;;;;;;;;7.50;6.00;;;;;8.78;85.81;101932.53;5098017;28;8950;-56
2023/12/17 04:41:28;;;;;;;;;6.00;4.00;;;;;8.78;86.13;101929.00;5096700;28;8830;-55
2023/12/17 04:43:55;;;;;;;;;6.00;6.00;;;;;8.78;86.16;101929.00;5097886;28;8852;-57
2023/12/17 04:46:23;;;;;;;;;7.00;6.00;;;;;8.79;85.77;101944.00;5097660;28;8824;-58
2023/12/17 04:48:51;;;;;;;;;5.50;5.50;;;;;8.77;86.17;101936.13;5097551;28;8842;-57
2023/12/17 04:51:19;;;;;;;;;4.00;4.00;;;;;8.77;86.40;101928.16;5097241;28;8838;-57
2023/12/17 04:53:46;;;;;;;;;6.75;6.00;;;;;8.76;85.99;101926.44;5096911;28;8830;-57
2023/12/17 04:56:14;;;;;;;;;3.00;2.00;;;;;8.76;86.28;101917.59;5098072;28;8907;-57
2023/12/17 04:58:42;;;;;;;;;3.00;3.00;;;;;8.74;86.03;101908.81;5097084;28;9574;-57
2023/12/17 05:01:10;;;;;;;;;3.00;3.00;;;;;8.72;86.59;101911.53;5093523;28;8824;-56
2023/12/17 05:03:38;;;;;;;;;1.50;1.00;;;;;8.72;86.37;101911.53;5097854;28;8915;-56
2023/12/17 05:06:06;;;;;;;;;3.00;1.00;;;;;8.72;86.21;101915.97;5097693;28;8845;-56
2023/12/17 05:08:34;;;;;;;;;6.00;4.50;;;;;8.72;86.33;101910.66;5097562;28;8962;-58
2023/12/17 05:11:02;;;;;;;;;0.00;0.00;;;;;8.72;86.29;101913.31;5097390;28;8826;-56
2023/12/17 05:13:29;;;;;;;;;3.00;3.00;;;;;8.71;86.31;101914.25;5097412;28;8822;-55
2023/12/17 05:15:57;;;;;;;;;3.50;3.00;;;;;8.70;86.58;101916.06;5097301;28;8803;-55
2023/12/17 05:18:25;;;;;;;;;3.50;3.50;;;;;8.72;86.41;101919.50;5097775;28;8818;-57
2023/12/17 05:20:53;;;;;;;;;4.00;4.00;;;;;8.71;86.08;101901.84;5097262;28;8850;-57
2023/12/17 05:23:21;;;;;;;;;0.00;0.00;;;;;8.72;86.73;101915.97;5097120;28;8825;-56
2023/12/17 05:25:49;;;;;;;;;1.50;1.50;;;;;8.71;86.43;101915.13;5097106;28;8834;-57
2023/12/17 05:28:16;;;;;;;;;3.25;3.00;;;;;8.71;86.39;101909.81;5096169;28;8844;-57
2023/12/17 05:30:46;;;;;;;;;4.00;3.50;;;;;8.71;86.63;101903.63;5097156;28;8811;-58
2023/12/17 05:33:14;;;;;;;;;6.00;4.00;;;;;8.72;86.57;101895.59;5097260;28;8858;-57
2023/12/17 05:35:43;;;;;;;;;5.00;4.50;;;;;8.71;86.31;101901.84;5097075;28;8822;-56
2023/12/17 05:38:10;;;;;;;;;4.00;4.00;;;;;8.72;86.17;101892.94;5096987;28;8810;-56
2023/12/17 05:40:38;;;;;;;;;4.50;3.25;;;;;8.72;86.42;101889.41;5096689;28;8846;-56
2023/12/17 05:43:06;;;;;;;;;1.00;1.00;;;;;8.71;86.49;101895.66;5096988;28;8833;-55
2023/12/17 05:45:34;;;;;;;;;3.50;3.00;;;;;8.71;86.30;101888.56;5096645;28;8842;-55
2023/12/17 05:48:09;;;;;;;;;2.00;2.00;;;;;8.71;86.58;101899.19;5097051;28;8841;-57
2023/12/17 05:50:37;;;;;;;;;1.00;1.00;;;;;8.73;86.64;101896.47;5096961;28;8968;-57
2023/12/17 05:53:05;;;;;;;;;3.00;1.00;;;;;8.73;86.60;101901.78;5096241;28;8841;-56
2023/12/17 05:55:33;;;;;;;;;5.00;3.50;;;;;8.73;86.08;101907.94;5096564;28;8834;-57
2023/12/17 05:58:01;;;;;;;;;6.00;6.00;;;;;8.74;86.07;101916.78;5096059;28;8856;-55
2023/12/17 06:00:28;;;;;;;;;0.75;0.75;;;;;8.74;86.53;101911.47;5096377;28;8853;-56
2023/12/17 06:02:57;;;;;;;;;3.00;3.00;;;;;8.74;85.92;101908.81;5096485;28;8903;-58
2023/12/17 06:05:24;;;;;;;;;1.50;1.50;;;;;8.75;86.34;101911.41;5096288;28;8960;-58
2023/12/17 06:07:53;;;;;;;;;3.00;3.00;;;;;8.75;86.20;101918.50;5095780;28;8822;-58
2023/12/17 06:10:21;;;;;;;;;3.50;3.00;;;;;8.76;86.35;101909.63;5096606;28;8810;-58
2023/12/17 06:12:49;;;;;;;;;2.50;2.50;;;;;8.74;86.41;101907.00;5096691;28;8830;-58
2023/12/17 06:15:16;;;;;;;;;6.00;4.00;;;;;8.74;86.71;101907.00;5096574;28;8949;-58
2023/12/17 06:17:44;;;;;;;;;3.50;3.50;;;;;8.75;86.58;101900.78;5096488;28;8814;-56
2023/12/17 06:20:12;;;;;;;;;5.00;3.50;;;;;8.75;86.37;101906.06;5096095;28;8822;-58
2023/12/17 06:22:40;;;;;;;;;4.50;3.75;;;;;8.76;86.34;101917.59;5095923;28;8822;-57
2023/12/17 06:25:07;;;;;;;;;2.50;1.50;;;;;8.77;86.53;101919.31;5095272;28;8842;-58
2023/12/17 06:27:36;;;;;;;;;4.75;4.75;;;;;8.76;86.29;101913.16;5094475;28;8854;-58
2023/12/17 06:30:04;;;;;;;;;4.00;4.00;;;;;8.76;85.88;101913.16;5095532;28;8798;-58
2023/12/17 06:32:32;;;;;;;;;4.00;3.00;;;;;8.76;86.31;101921.13;5095915;28;8822;-58
2023/12/17 06:35:00;;;;;;;;;3.00;3.00;;;;;8.78;85.97;101926.34;5096207;28;8818;-58
2023/12/17 06:37:28;;;;;;;;;2.00;2.00;;;;;8.78;85.82;101931.66;5096107;28;8945;-57
2023/12/17 06:39:55;;;;;;;;;3.50;3.50;;;;;8.78;85.87;101940.50;5095001;28;8837;-58
2023/12/17 06:42:23;;;;;;;;;0.50;0.50;;;;;8.78;86.23;101931.66;5095309;28;8838;-57
2023/12/17 06:44:51;;;;;;;;;3.75;3.00;;;;;8.78;86.10;101932.53;5094393;28;8919;-58
2023/12/17 06:47:19;;;;;;;;;1.00;1.00;;;;;8.78;86.07;101943.16;5095433;28;8826;-58
2023/12/17 06:49:55;;;;;;;;;3.00;2.00;;;;;8.78;85.96;101948.47;5095764;28;8844;-58
2023/12/17 06:52:23;;;;;;;;;3.50;3.00;;;;;8.78;86.40;101952.91;5095223;28;8936;-57
2023/12/17 06:54:50;;;;;;;;;1.50;1.50;;;;;8.78;86.16;101967.06;5094721;28;9535;-58
2023/12/17 06:57:18;;;;;;;;;1.00;1.00;;;;;8.78;86.23;101964.41;5093690;28;8838;-58
2023/12/17 06:59:46;;;;;;;;;1.00;1.00;;;;;8.77;85.87;101957.38;5094758;28;8838;-57
2023/12/17 07:02:14;;;;;;;;;4.00;4.00;;;;;8.77;86.23;101962.69;5095232;28;8814;-57
2023/12/17 07:04:41;;;;;;;;;3.75;3.00;;;;;8.78;85.92;101955.56;5095191;28;8930;-58
2023/12/17 07:07:09;;;;;;;;;3.00;1.50;;;;;8.77;85.78;101949.41;5099503;28;8972;-58
2023/12/17 07:09:37;;;;;;;;;3.75;3.75;;;;;8.75;85.97;101948.56;5099568;28;8845;-58
2023/12/17 07:12:04;;;;;;;;;3.25;3.00;;;;;8.75;85.99;101945.91;5098353;28;8846;-58
2023/12/17 07:14:32;;;;;;;;;1.00;1.00;;;;;8.74;85.87;101938.88;5098554;28;8939;-57
2023/12/17 07:17:00;;;;;;;;;3.00;3.00;;;;;8.73;85.88;101950.44;5098772;28;8814;-56
2023/12/17 07:19:28;;;;;;;;;3.00;2.00;;;;;8.73;86.29;101947.78;5099566;28;8833;-58
2023/12/17 07:21:55;;;;;;;;;3.50;3.50;;;;;8.73;86.22;101944.28;5099663;28;8821;-58
2023/12/17 07:24:23;;;;;;;;;3.25;3.00;;;;;8.73;86.38;101949.59;5099360;28;8956;-56
2023/12/17 07:26:51;;;;;;;;;3.00;3.00;;;;;8.72;85.94;101945.19;5099254;28;8834;-59
2023/12/17 07:29:19;;;;;;;;;1.00;1.00;;;;;8.72;86.33;101942.53;5098418;28;8814;-56
2023/12/17 07:31:47;;;;;;;;;3.50;3.00;;;;;8.69;86.22;101935.56;5100513;28;8795;-55
2023/12/17 07:34:15;;;;;;;;;3.75;3.25;;;;;8.69;86.39;101940.88;5106029;28;8808;-56
2023/12/17 07:36:48;;;;;;;;;4.00;4.00;;;;;8.69;86.35;101946.19;5099294;28;8822;-56
2023/12/17 07:39:16;;;;;;;;;3.25;1.50;;;;;8.69;86.38;101942.66;5097111;28;8846;-58
2023/12/17 07:41:45;;;;;;;;;3.00;3.00;;;;;8.69;86.09;101950.63;5110010;28;8828;-56
2023/12/17 07:44:13;;;;;;;;;3.00;3.00;;;;;8.69;86.13;101947.97;5119236;28;8816;-56
2023/12/17 07:46:41;;;;;;;;;5.25;4.75;;;;;8.68;86.07;101943.59;5087952;28;8820;-56
2023/12/17 07:49:09;;;;;;;;;5.00;4.00;;;;;8.68;86.35;101947.09;5078594;28;8824;-57
2023/12/17 07:51:38;;;;;;;;;3.25;1.50;;;;;8.68;86.42;101957.72;5078245;28;8805;-57
2023/12/17 07:54:06;;;;;;;;;2.50;2.50;;;;;8.69;86.38;101951.50;5078482;28;8812;-56
2023/12/17 07:56:34;;;;;;;;;4.00;4.00;;;;;8.70;86.04;101947.03;5095311;28;9572;-55
2023/12/17 07:59:01;;;;;;;;;3.00;3.00;;;;;8.70;85.86;101947.03;5098969;28;8864;-58
2023/12/17 08:01:29;;;;;;;;;3.00;3.00;;;;;8.70;85.98;101950.56;5098678;28;8818;-57
2023/12/17 08:03:57;;;;;;;;;2.50;2.50;;;;;8.69;86.07;101942.66;5098692;28;8817;-56
2023/12/17 08:06:25;;;;;;;;;1.50;1.50;;;;;8.69;86.13;101947.97;5098586;28;8814;-57
2023/12/17 08:08:53;;;;;;;;;3.25;2.00;;;;;8.68;86.13;101949.75;5098782;28;8821;-58
2023/12/17 08:11:21;;;;;;;;;3.00;2.00;;;;;8.68;86.23;101947.09;5098579;28;8842;-56
2023/12/17 08:13:48;;;;;;;;;1.00;1.00;;;;;8.70;85.92;101952.34;5098323;28;8822;-57
2023/12/17 08:16:16;;;;;;;;;2.50;2.50;;;;;8.70;86.10;101947.03;5097469;28;8818;-58
2023/12/17 08:18:44;;;;;;;;;3.00;3.00;;;;;8.70;85.87;101950.56;5097146;28;8944;-58
2023/12/17 08:21:12;;;;;;;;;1.00;1.00;;;;;8.72;86.16;101950.50;5096883;28;8814;-56
2023/12/17 08:23:40;;;;;;;;;1.50;1.50;;;;;8.72;85.71;101946.06;5093845;28;8817;-57
2023/12/17 08:26:09;;;;;;;;;1.00;1.00;;;;;8.74;85.82;101944.19;5096810;28;9491;-55
2023/12/17 08:28:37;;;;;;;;;2.00;1.00;;;;;8.73;85.90;101939.81;5096715;28;8852;-57
2023/12/17 08:31:09;;;;;;;;;4.00;3.75;;;;;8.74;86.17;101943.34;5096644;28;8805;-58
2023/12/17 08:33:37;;;;;;;;;3.00;3.00;;;;;8.74;86.11;101941.53;5097850;28;8850;-58
2023/12/17 08:36:05;;;;;;;;;3.00;3.00;;;;;8.76;85.65;101942.38;5097853;28;8814;-58
2023/12/17 08:38:33;;;;;;;;;1.00;1.00;;;;;8.78;85.82;101936.97;5097868;28;8826;-58
2023/12/17 08:41:01;;;;;;;;;3.00;3.00;;;;;8.78;85.50;101936.97;5097663;28;8972;-56
2023/12/17 08:43:29;;;;;;;;;4.50;4.00;;;;;8.79;85.79;101933.38;5098097;28;8828;-57
2023/12/17 08:45:56;;;;;;;;;3.25;3.25;;;;;8.79;85.48;101928.06;5097115;28;8853;-57
2023/12/17 08:48:24;;;;;;;;;4.50;4.50;;;;;8.79;85.56;101928.06;5097327;28;8830;-57
2023/12/17 08:50:52;;;;;;;;;4.50;4.50;;;;;8.79;85.63;101930.72;5097988;28;9500;-58
2023/12/17 08:53:23;;;;;;;;;2.00;2.00;;;;;8.80;85.47;101933.34;5097455;28;8821;-58
2023/12/17 08:55:51;;;;;;;;;7.25;7.25;;;;;8.80;85.46;101928.03;5097729;28;8844;-58
2023/12/17 08:58:18;;;;;;;;;10.00;7.00;;;;;8.79;85.59;101928.94;5096902;28;8841;-56
2023/12/17 09:00:47;;;;;;;;;4.00;3.75;;;;;8.80;85.60;101920.03;5097594;28;8860;-57
2023/12/17 09:03:14;;;;;;;;;3.75;3.50;;;;;8.80;85.89;101928.03;5097781;28;8837;-56
2023/12/17 09:05:43;;;;;;;;;7.00;6.00;;;;;8.81;85.80;101919.13;5097428;28;8836;-58
2023/12/17 09:08:11;;;;;;;;;7.50;6.50;;;;;8.81;85.14;101920.94;5097414;28;8830;-56
2023/12/17 09:10:41;;;;;;;;;3.00;1.00;;;;;8.81;85.26;101913.81;5097485;28;8965;-58
2023/12/17 09:13:09;;;;;;;;;3.75;3.00;;;;;8.79;85.46;101915.66;5097266;28;8990;-58
2023/12/17 09:15:37;;;;;;;;;2.00;1.00;;;;;8.77;85.48;101919.31;5097223;28;8849;-57
2023/12/17 09:18:05;;;;;;;;;4.75;3.50;;;;;8.76;85.86;101912.28;5097582;28;9514;-55
2023/12/17 09:20:33;;;;;;;;;8.00;7.50;;;;;8.75;85.66;101911.41;5096804;28;8960;-58
2023/12/17 09:23:02;;;;;;;;;3.50;3.00;;;;;8.75;85.66;101911.41;5095869;28;8851;-57
2023/12/17 09:25:30;;;;;;;;;3.25;2.50;;;;;8.75;85.65;101914.06;5095775;28;8830;-58
2023/12/17 09:27:58;;;;;;;;;4.00;3.75;;;;;8.77;85.23;101919.31;5095198;28;8818;-57
2023/12/17 09:30:26;;;;;;;;;4.50;4.50;;;;;8.76;85.82;101910.50;5095271;28;8852;-55
2023/12/17 09:32:54;;;;;;;;;2.50;2.50;;;;;8.78;85.25;101918.38;5097531;28;8826;-58
2023/12/17 09:35:22;;;;;;;;;5.50;3.75;;;;;8.78;85.83;101916.59;5097029;28;8811;-58
2023/12/17 09:37:50;;;;;;;;;4.50;4.00;;;;;8.79;85.24;101918.31;5096821;28;8919;-58
2023/12/17 09:40:18;;;;;;;;;0.25;0.00;;;;;8.81;85.35;101915.63;5096547;28;9615;-57
2023/12/17 09:42:45;;;;;;;;;6.50;5.25;;;;;8.82;85.02;101907.56;5096717;28;8969;-57
2023/12/17 09:45:14;;;;;;;;;6.00;5.50;;;;;8.82;85.24;101907.56;5095453;28;8842;-55
2023/12/17 09:47:43;;;;;;;;;2.00;2.00;;;;;8.81;85.25;101910.31;5095724;28;8822;-55
2023/12/17 09:50:12;;;;;;;;;6.00;3.25;;;;;8.77;85.30;101906.03;5095079;28;8838;-56
2023/12/17 09:52:40;;;;;;;;;6.00;6.00;;;;;8.75;85.37;101913.19;5094840;28;8852;-56
2023/12/17 09:55:07;;;;;;;;;1.00;1.00;;;;;8.74;85.26;101901.69;5093811;28;8919;-58
2023/12/17 09:57:35;;;;;;;;;9.50;7.00;;;;;8.76;85.70;101907.84;5093296;28;8834;-57
2023/12/17 10:00:03;;;;;;;;;3.50;3.50;;;;;8.79;85.70;101902.38;5094338;28;8830;-58
2023/12/17 10:02:32;;;;;;;;;5.50;5.50;;;;;8.84;85.58;101907.50;5115089;28;8861;-58
2023/12/17 10:05:06;;;;;;;;;5.50;5.00;;;;;8.85;85.17;101901.25;5115065;28;8842;-58
2023/12/17 10:07:34;;;;;;;;;2.00;1.50;;;;;8.85;85.12;101901.25;5115361;28;8831;-58
2023/12/17 10:10:03;;;;;;;;;6.00;6.00;;;;;8.86;85.32;101901.22;5115722;28;8884;-56
2023/12/17 10:12:31;;;;;;;;;6.75;6.75;;;;;8.87;85.31;101900.28;5116640;28;8862;-56
2023/12/17 10:14:59;;;;;;;;;3.25;3.25;;;;;8.86;85.00;101901.22;5116367;28;9501;-56
2023/12/17 10:17:27;;;;;;;;;4.50;4.50;;;;;8.87;85.07;101892.31;5116216;28;8851;-56
2023/12/17 10:19:55;;;;;;;;;1.00;1.00;;;;;8.93;84.88;101892.06;5116269;28;8854;-56
2023/12/17 10:22:23;;;;;;;;;2.50;2.50;;;;;8.98;85.05;101882.06;5116249;28;8862;-55
2023/12/17 10:24:51;;;;;;;;;6.50;6.25;;;;;9.02;84.48;101888.13;5116208;28;8920;-58
2023/12/17 10:27:19;;;;;;;;;4.50;4.00;;;;;9.05;84.42;101883.56;5113847;28;8928;-56
2023/12/17 10:29:47;;;;;;;;;5.00;3.25;;;;;9.08;84.36;101877.25;5095091;28;8960;-56
2023/12/17 10:32:15;;;;;;;;;6.00;4.00;;;;;9.09;84.44;101878.97;5094431;28;8845;-56
2023/12/17 10:34:43;;;;;;;;;4.00;4.00;;;;;9.12;84.72;101874.38;5094172;28;8846;-55
2023/12/17 10:37:12;;;;;;;;;3.75;3.25;;;;;9.18;84.40;101868.81;5094254;28;9770;-59
2023/12/17 10:39:40;;;;;;;;;3.00;3.00;;;;;9.23;84.61;101860.66;5094785;28;8864;-57
2023/12/17 10:42:08;;;;;;;;;3.25;3.00;;;;;9.24;84.18;101870.34;5095314;28;8931;-57
2023/12/17 10:44:36;;;;;;;;;3.25;3.25;;;;;9.25;83.91;101859.66;5095657;28;8905;-56
2023/12/17 10:47:04;;;;;;;;;3.50;3.50;;;;;9.26;83.69;101866.69;5095714;28;8830;-58
2023/12/17 10:49:32;;;;;;;;;3.50;2.00;;;;;9.29;84.00;101860.38;5095859;28;8826;-56
2023/12/17 10:52:02;;;;;;;;;5.00;3.75;;;;;9.32;84.42;101854.91;5094662;28;8832;-59
2023/12/17 10:54:30;;;;;;;;;3.50;3.00;;;;;9.38;83.89;101850.22;5094346;28;8999;-59
2023/12/17 10:56:59;;;;;;;;;3.50;3.50;;;;;9.41;83.77;101842.09;5094585;28;8818;-58
2023/12/17 10:59:27;;;;;;;;;3.00;3.00;;;;;9.46;84.29;101837.44;5094253;28;8932;-59
2023/12/17 11:02:07;;;;;;;;;2.00;2.00;;;;;9.48;83.72;101835.56;5094411;28;8914;-58
2023/12/17 11:04:35;;;;;;;;;3.00;3.00;;;;;9.52;84.08;101837.19;5093817;28;8879;-58
2023/12/17 11:07:03;;;;;;;;;5.00;4.00;;;;;9.60;83.79;101834.16;5095286;28;9503;-59
2023/12/17 11:09:31;;;;;;;;;3.00;3.00;;;;;9.62;83.59;101830.50;5095363;28;8841;-58
2023/12/17 11:11:59;;;;;;;;;3.00;3.00;;;;;9.64;83.22;101833.09;5095640;28;8850;-59
2023/12/17 11:14:27;;;;;;;;;0.75;0.75;;;;;9.70;83.30;101831.00;5095357;28;9781;-58
2023/12/17 11:16:55;;;;;;;;;1.50;1.50;;;;;9.79;83.42;101829.72;5095603;28;9471;-59
2023/12/17 11:19:22;;;;;;;;;4.00;3.00;;;;;9.92;82.87;101831.75;5094478;28;8834;-59
2023/12/17 11:21:50;;;;;;;;;3.25;3.00;;;;;10.04;83.01;101830.34;5094972;28;8938;-55
2023/12/17 11:24:18;;;;;;;;;2.00;1.00;;;;;10.15;82.61;101820.91;5095049;28;9522;-56
2023/12/17 11:26:46;;;;;;;;;3.75;2.00;;;;;10.20;82.17;101826.88;5095309;28;9609;-57
2023/12/17 11:29:14;;;;;;;;;4.00;3.25;;;;;10.28;82.43;101814.06;5093750;28;8817;-56
2023/12/17 11:31:43;;;;;;;;;1.00;1.00;;;;;10.33;82.02;101821.81;5094453;28;8818;-58
2023/12/17 11:34:11;;;;;;;;;2.00;1.00;;;;;10.37;82.35;101818.94;5098183;28;8802;-58
2023/12/17 11:36:39;;;;;;;;;1.00;1.00;;;;;10.45;82.42;101818.53;5115150;28;8824;-58
2023/12/17 11:39:08;;;;;;;;;3.00;3.00;;;;;10.53;81.93;101825.22;5114785;28;8831;-58
2023/12/17 11:41:36;;;;;;;;;2.50;2.50;;;;;10.59;81.23;101816.06;5114572;28;9572;-56
2023/12/17 11:44:04;;;;;;;;;0.00;0.00;;;;;10.73;81.16;101810.91;5114922;28;8823;-58
2023/12/17 11:46:32;;;;;;;;;1.00;1.00;;;;;10.96;80.23;101808.81;5114747;28;8832;-58